Time;durP1;ratioP1;P1;durP2;ratioP2;P2;SDS_P1;SDS_P2;PMS_P1;PMS_P2;Temp;Humidity;BMP_temperature;BMP_pressure;BME280_temperature;BME280_humidity;BME280_pressure;Samples;Min_cycle;Max_cycle;Signal;HPM_P1;HPM_P2
2022/08/05 00:01:01;;;;;;;3.40;0.45;;;24.10;74.00;;;;;;5072362;28;20510;-75
2022/08/05 00:03:27;;;;;;;0.20;0.20;;;24.10;74.20;;;;;;5072503;28;20472;-73
2022/08/05 00:05:53;;;;;;;0.63;0.38;;;23.90;74.90;;;;;;5072624;28;20031;-73
2022/08/05 00:08:19;;;;;;;0.55;0.45;;;23.70;75.40;;;;;;5070961;28;20496;-73
2022/08/05 00:10:44;;;;;;;0.25;0.25;;;23.70;75.80;;;;;;5072342;28;20013;-73
2022/08/05 00:13:10;;;;;;;5.57;3.08;;;23.80;75.40;;;;;;5072202;28;20030;-73
2022/08/05 00:15:36;;;;;;;0.55;0.55;;;23.80;75.50;;;;;;5072113;28;20021;-73
2022/08/05 00:18:02;;;;;;;15.65;7.88;;;23.80;75.90;;;;;;5072093;28;20071;-73
2022/08/05 00:20:28;;;;;;;0.15;0.15;;;23.80;76.10;;;;;;5072044;28;20029;-73
2022/08/05 00:22:53;;;;;;;0.00;0.00;;;23.80;75.70;;;;;;5070980;28;20551;-73
2022/08/05 00:25:19;;;;;;;0.10;0.10;;;24.00;75.00;;;;;;5072118;28;20028;-74
2022/08/05 00:27:45;;;;;;;0.10;0.10;;;24.10;74.90;;;;;;5071906;28;20040;-73
2022/08/05 00:30:11;;;;;;;0.15;0.15;;;24.10;75.20;;;;;;5072006;28;20029;-73
2022/08/05 00:32:37;;;;;;;0.10;0.10;;;24.20;75.10;;;;;;5072090;28;20021;-73
2022/08/05 00:35:03;;;;;;;0.00;0.00;;;24.30;74.60;;;;;;5070829;28;20476;-73
2022/08/05 00:37:28;;;;;;;0.00;0.00;;;24.40;74.50;;;;;;5071885;28;20024;-74
2022/08/05 00:39:54;;;;;;;0.00;0.00;;;24.40;74.20;;;;;;5071977;28;20078;-73
2022/08/05 00:42:34;;;;;;;0.05;0.05;;;24.30;74.70;;;;;;5070641;28;20093;-73
2022/08/05 00:45:01;;;;;;;0.93;0.93;;;24.20;75.60;;;;;;5072133;28;20379;-73
2022/08/05 00:47:27;;;;;;;0.10;0.10;;;24.10;76.00;;;;;;5070513;28;20029;-73
2022/08/05 00:49:53;;;;;;;0.30;0.30;;;23.90;76.70;;;;;;5070746;28;20384;-73
2022/08/05 00:52:19;;;;;;;0.00;0.00;;;23.50;77.80;;;;;;5070708;28;20020;-73
2022/08/05 00:54:44;;;;;;;0.43;0.43;;;23.40;78.60;;;;;;5070534;28;20028;-73
2022/08/05 00:57:10;;;;;;;0.20;0.20;;;23.40;79.00;;;;;;5071647;28;20031;-73
2022/08/05 00:59:36;;;;;;;0.10;0.10;;;23.50;78.80;;;;;;5071803;28;20021;-73
2022/08/05 01:02:02;;;;;;;0.00;0.00;;;23.40;79.20;;;;;;5070421;28;20021;-73
2022/08/05 01:04:28;;;;;;;0.35;0.35;;;23.40;79.40;;;;;;5071650;28;20021;-73
2022/08/05 01:06:54;;;;;;;0.25;0.20;;;23.30;79.60;;;;;;5071538;28;20031;-73
2022/08/05 01:09:19;;;;;;;2.45;0.82;;;23.20;80.00;;;;;;5070433;28;20472;-73
2022/08/05 01:11:49;;;;;;;0.43;0.43;;;23.20;80.00;;;;;;5070303;28;20025;-73
2022/08/05 01:14:23;;;;;;;1.65;0.82;;;23.10;80.30;;;;;;5075006;28;20293;-73
2022/08/05 01:17:03;;;;;;;0.10;0.10;;;23.10;80.80;;;;;;5074153;28;20441;-73
2022/08/05 01:19:46;;;;;;;0.00;0.00;;;23.00;81.00;;;;;;5075757;28;20384;-73
2022/08/05 01:22:24;;;;;;;0.10;0.10;;;23.10;80.80;;;;;;5075797;28;20500;-73
2022/08/05 01:24:49;;;;;;;0.30;0.30;;;23.20;80.60;;;;;;5075282;28;20160;-73
2022/08/05 01:27:18;;;;;;;2.53;0.55;;;23.10;80.60;;;;;;5075073;28;20123;-73
2022/08/05 01:29:51;;;;;;;1.70;0.93;;;23.10;80.70;;;;;;5075216;28;20027;-73
2022/08/05 01:32:22;;;;;;;0.88;0.85;;;22.90;81.50;;;;;;5075197;28;20013;-73
2022/08/05 01:34:54;;;;;;;1.80;1.38;;;22.80;81.50;;;;;;5075117;28;20365;-73
2022/08/05 01:37:39;;;;;;;0.85;0.50;;;22.70;81.80;;;;;;5073858;28;20099;-73
2022/08/05 01:40:08;;;;;;;1.02;0.95;;;22.80;81.80;;;;;;5075039;28;20060;-73
2022/08/05 01:42:36;;;;;;;0.52;0.52;;;22.80;81.70;;;;;;5073656;28;20035;-73
2022/08/05 01:45:03;;;;;;;0.52;0.52;;;22.80;82.10;;;;;;5075158;28;20024;-73
2022/08/05 01:47:32;;;;;;;0.10;0.10;;;22.80;81.80;;;;;;5056873;28;20029;-73
2022/08/05 01:50:01;;;;;;;0.38;0.35;;;23.00;81.60;;;;;;5074762;28;20029;-73
2022/08/05 01:52:28;;;;;;;0.10;0.10;;;23.00;81.00;;;;;;5074828;28;20108;-73
2022/08/05 01:54:58;;;;;;;0.77;0.77;;;23.20;80.80;;;;;;5056850;28;20047;-74
2022/08/05 01:57:26;;;;;;;0.43;0.20;;;23.20;80.60;;;;;;5074583;28;20031;-74
2022/08/05 01:59:57;;;;;;;1.70;0.88;;;23.30;80.50;;;;;;5074613;28;20025;-73
2022/08/05 02:02:26;;;;;;;0.20;0.20;;;23.40;80.40;;;;;;5073373;28;20052;-74
2022/08/05 02:04:54;;;;;;;0.52;0.52;;;23.40;80.30;;;;;;5074543;28;20021;-73
2022/08/05 02:07:20;;;;;;;0.20;0.20;;;23.40;80.10;;;;;;5073086;28;20028;-73
2022/08/05 02:09:46;;;;;;;0.00;0.00;;;23.40;80.80;;;;;;5074465;28;20028;-73
2022/08/05 02:12:19;;;;;;;0.00;0.00;;;23.40;80.80;;;;;;5073187;28;20025;-73
2022/08/05 02:15:02;;;;;;;1.00;1.00;;;23.40;81.00;;;;;;5074401;28;20020;-74
2022/08/05 02:17:33;;;;;;;0.82;0.82;;;23.50;80.70;;;;;;5073111;28;20033;-73
2022/08/05 02:20:03;;;;;;;0.00;0.00;;;23.60;80.50;;;;;;5074419;28;20062;-74
2022/08/05 02:22:37;;;;;;;0.00;0.00;;;23.60;80.70;;;;;;5073059;28;20048;-74
2022/08/05 02:25:24;;;;;;;0.20;0.20;;;23.60;80.40;;;;;;5073246;28;20091;-73
2022/08/05 02:27:51;;;;;;;0.10;0.10;;;23.70;80.20;;;;;;5073957;28;20098;-74
2022/08/05 02:30:17;;;;;;;1.23;1.20;;;23.90;80.20;;;;;;5074188;28;20021;-74
2022/08/05 02:32:53;;;;;;;0.00;0.00;;;24.00;79.60;;;;;;5074109;28;20028;-74
2022/08/05 02:35:21;;;;;;;0.20;0.20;;;23.90;79.90;;;;;;5074374;28;20384;-76
2022/08/05 02:37:49;;;;;;;0.00;0.00;;;23.70;80.80;;;;;;5074023;28;20402;-73
2022/08/05 02:40:16;;;;;;;0.00;0.00;;;23.70;81.00;;;;;;5072828;28;20542;-73
2022/08/05 02:42:43;;;;;;;0.00;0.00;;;23.90;80.40;;;;;;5072806;28;20071;-73
2022/08/05 02:45:10;;;;;;;0.00;0.00;;;24.00;80.40;;;;;;5073580;28;20016;-73
2022/08/05 02:47:37;;;;;;;0.20;0.20;;;24.10;80.10;;;;;;5072862;28;20447;-75
2022/08/05 02:50:05;;;;;;;0.00;0.00;;;24.00;80.50;;;;;;5073682;28;20013;-75
2022/08/05 02:52:32;;;;;;;0.10;0.10;;;23.80;81.70;;;;;;5073412;28;20024;-76
2022/08/05 02:55:00;;;;;;;0.95;0.95;;;23.90;81.00;;;;;;5073373;28;20016;-76
2022/08/05 02:57:26;;;;;;;0.10;0.10;;;23.90;80.70;;;;;;5073504;28;20048;-76
2022/08/05 02:59:53;;;;;;;0.00;0.00;;;24.00;80.60;;;;;;5072281;28;20493;-75
2022/08/05 03:02:24;;;;;;;0.00;0.00;;;24.00;80.30;;;;;;5073611;28;20101;-77
2022/08/05 03:04:53;;;;;;;0.00;0.00;;;23.90;80.90;;;;;;5072123;28;20024;-77
2022/08/05 03:07:20;;;;;;;0.00;0.00;;;23.90;80.80;;;;;;5071964;28;20110;-77
2022/08/05 03:09:47;;;;;;;0.00;0.00;;;24.10;80.90;;;;;;5072016;28;20032;-76
2022/08/05 03:12:29;;;;;;;0.00;0.00;;;24.10;80.60;;;;;;5071976;28;20089;-77
2022/08/05 03:14:55;;;;;;;0.20;0.20;;;24.10;80.40;;;;;;5073113;28;20024;-77
2022/08/05 03:17:21;;;;;;;0.03;0.03;;;24.00;80.80;;;;;;5072968;28;20029;-76
2022/08/05 03:19:46;;;;;;;0.10;0.10;;;24.00;81.00;;;;;;5073115;28;20071;-77
2022/08/05 03:22:13;;;;;;;0.00;0.00;;;24.10;80.90;;;;;;5071811;28;20028;-77
2022/08/05 03:24:39;;;;;;;0.03;0.03;;;24.00;81.20;;;;;;5072093;28;20016;-76
2022/08/05 03:27:05;;;;;;;0.28;0.28;;;24.10;81.40;;;;;;5072711;28;20053;-77
2022/08/05 03:29:31;;;;;;;0.00;0.00;;;23.90;81.70;;;;;;5073024;28;20443;-77
2022/08/05 03:31:57;;;;;;;22.80;20.38;;;23.90;81.90;;;;;;5071531;28;20021;-76
2022/08/05 03:34:23;;;;;;;0.30;0.30;;;23.80;82.00;;;;;;5071649;28;20362;-76
2022/08/05 03:36:49;;;;;;;0.00;0.00;;;23.70;82.80;;;;;;5072507;28;20020;-77
2022/08/05 03:39:15;;;;;;;0.00;0.00;;;23.70;82.80;;;;;;5072924;28;20389;-76
2022/08/05 03:41:41;;;;;;;0.00;0.00;;;23.90;82.20;;;;;;5071376;28;20039;-75
2022/08/05 03:44:06;;;;;;;0.00;0.00;;;24.00;82.10;;;;;;5072748;28;20035;-75
2022/08/05 03:46:32;;;;;;;0.00;0.00;;;24.20;82.10;;;;;;5054660;28;20055;-75
2022/08/05 03:48:58;;;;;;;0.20;0.20;;;24.10;81.90;;;;;;5072410;28;20097;-76
2022/08/05 03:51:48;;;;;;;0.00;0.00;;;24.20;81.90;;;;;;5071268;28;20021;-76
2022/08/05 03:54:18;;;;;;;0.00;0.00;;;24.10;82.00;;;;;;5063526;28;20039;-76
2022/08/05 03:56:48;;;;;;;0.00;0.00;;;23.90;82.90;;;;;;5072074;28;20019;-76
2022/08/05 03:59:20;;;;;;;0.00;0.00;;;23.90;83.00;;;;;;5072252;28;20023;-77
2022/08/05 04:01:48;;;;;;;0.00;0.00;;;23.90;82.50;;;;;;5072385;28;20472;-75
2022/08/05 04:04:15;;;;;;;0.32;0.32;;;23.80;82.80;;;;;;5070981;28;20028;-76
2022/08/05 04:06:42;;;;;;;0.40;0.40;;;23.80;83.00;;;;;;5072027;28;20070;-75
2022/08/05 04:09:08;;;;;;;0.20;0.20;;;23.70;83.30;;;;;;5071106;28;20495;-76
2022/08/05 04:11:36;;;;;;;0.00;0.00;;;23.60;83.80;;;;;;5072499;28;20430;-76
2022/08/05 04:14:02;;;;;;;0.20;0.20;;;23.60;83.70;;;;;;5071129;28;20032;-76
2022/08/05 04:16:30;;;;;;;0.00;0.00;;;23.60;84.50;;;;;;5070982;28;20071;-76
2022/08/05 04:18:56;;;;;;;0.00;0.00;;;23.60;83.80;;;;;;5072098;28;20030;-75
2022/08/05 04:21:22;;;;;;;0.00;0.00;;;23.60;83.80;;;;;;5071859;28;20115;-75
2022/08/05 04:23:48;;;;;;;0.90;0.52;;;23.50;84.20;;;;;;5070906;28;20039;-76
2022/08/05 04:26:14;;;;;;;0.00;0.00;;;23.50;84.30;;;;;;5071907;28;20400;-75
2022/08/05 04:28:40;;;;;;;0.00;0.00;;;23.50;85.10;;;;;;5070716;28;20024;-75
2022/08/05 04:31:06;;;;;;;0.00;0.00;;;23.50;84.90;;;;;;5070768;28;20323;-75
2022/08/05 04:33:32;;;;;;;0.00;0.00;;;23.50;84.60;;;;;;5072174;28;20360;-75
2022/08/05 04:35:58;;;;;;;0.03;0.03;;;23.60;85.30;;;;;;5070509;28;20032;-76
2022/08/05 04:38:24;;;;;;;0.00;0.00;;;23.40;85.80;;;;;;5070686;28;21182;-77
2022/08/05 04:40:49;;;;;;;0.45;0.30;;;23.40;85.70;;;;;;5071983;28;20058;-74
2022/08/05 04:43:15;;;;;;;0.10;0.10;;;23.40;85.80;;;;;;5071952;28;20105;-75
2022/08/05 04:45:41;;;;;;;0.00;0.00;;;23.30;86.20;;;;;;5070507;28;20032;-75
2022/08/05 04:48:08;;;;;;;0.00;0.00;;;23.30;86.70;;;;;;5073500;28;20024;-74
2022/08/05 04:50:52;;;;;;;0.10;0.10;;;23.40;86.40;;;;;;5075913;28;20095;-74
2022/08/05 04:53:18;;;;;;;0.00;0.00;;;23.50;86.30;;;;;;5075850;28;20024;-76
2022/08/05 04:55:45;;;;;;;0.00;0.00;;;23.70;86.20;;;;;;5075879;28;20017;-76
2022/08/05 04:58:13;;;;;;;0.00;0.00;;;23.90;84.60;;;;;;5074261;28;20273;-75
2022/08/05 05:00:40;;;;;;;0.00;0.00;;;24.10;83.70;;;;;;5075101;28;20032;-76
2022/08/05 05:03:08;;;;;;;0.10;0.10;;;24.20;83.30;;;;;;5076214;28;20058;-75
2022/08/05 05:05:34;;;;;;;0.50;0.50;;;24.00;83.30;;;;;;5076028;28;20028;-75
2022/08/05 05:08:04;;;;;;;0.00;0.00;;;24.00;83.50;;;;;;5089821;28;20024;-74
2022/08/05 05:10:31;;;;;;;0.75;0.65;;;24.00;83.70;;;;;;5076592;28;20060;-76
2022/08/05 05:12:57;;;;;;;0.00;0.00;;;24.00;83.50;;;;;;5075825;28;20021;-75
2022/08/05 05:15:24;;;;;;;0.65;0.60;;;24.10;83.40;;;;;;5079862;28;20403;-76
2022/08/05 05:17:50;;;;;;;0.00;0.00;;;24.30;82.80;;;;;;5079258;22;20048;-72
2022/08/05 05:20:15;;;;;;;0.40;0.15;;;24.30;82.70;;;;;;5055222;28;20071;-72
2022/08/05 05:22:41;;;;;;;3.10;1.48;;;24.30;82.30;;;;;;5055178;28;20025;-72
2022/08/05 05:25:07;;;;;;;0.47;0.47;;;24.30;82.40;;;;;;5055071;28;20487;-72
2022/08/05 05:27:34;;;;;;;1.92;1.45;;;24.30;82.60;;;;;;5053661;28;20033;-72
2022/08/05 05:30:01;;;;;;;0.00;0.00;;;24.30;82.70;;;;;;5053854;28;20032;-72
2022/08/05 05:32:27;;;;;;;0.10;0.10;;;24.40;83.10;;;;;;5058117;28;20024;-72
2022/08/05 05:34:53;;;;;;;0.00;0.00;;;24.50;83.80;;;;;;5073763;28;20025;-74
2022/08/05 05:37:19;;;;;;;6.03;0.75;;;24.50;84.10;;;;;;5075015;28;20025;-72
2022/08/05 05:39:45;;;;;;;0.00;0.00;;;24.60;84.30;;;;;;5073594;28;20021;-72
2022/08/05 05:42:10;;;;;;;0.00;0.00;;;24.50;84.50;;;;;;5073557;28;20492;-72
2022/08/05 05:44:36;;;;;;;1.77;0.85;;;24.50;84.60;;;;;;5074767;28;20388;-72
2022/08/05 05:47:02;;;;;;;0.00;0.00;;;24.50;85.10;;;;;;5073337;28;20074;-72
2022/08/05 05:49:28;;;;;;;0.00;0.00;;;24.50;85.40;;;;;;5074726;28;20090;-72
2022/08/05 05:51:54;;;;;;;0.10;0.10;;;24.70;85.70;;;;;;5073448;28;20115;-75
2022/08/05 05:54:20;;;;;;;0.20;0.20;;;24.80;85.30;;;;;;5074581;28;20055;-72
2022/08/05 05:56:45;;;;;;;0.00;0.00;;;24.80;84.40;;;;;;5074445;28;20056;-72
2022/08/05 05:59:11;;;;;;;0.05;0.05;;;24.90;84.10;;;;;;5072095;28;20099;-72
2022/08/05 06:01:39;;;;;;;0.00;0.00;;;24.90;83.60;;;;;;5073265;28;20025;-72
2022/08/05 06:04:06;;;;;;;0.08;0.08;;;24.90;83.10;;;;;;5073536;28;20025;-72
2022/08/05 06:06:31;;;;;;;0.00;0.00;;;25.00;83.00;;;;;;5073002;28;20028;-72
2022/08/05 06:08:57;;;;;;;0.00;0.00;;;25.20;83.20;;;;;;5072977;28;20029;-72
2022/08/05 06:11:23;;;;;;;0.00;0.00;;;25.30;82.70;;;;;;5074364;28;20035;-71
2022/08/05 06:13:49;;;;;;;0.10;0.10;;;25.50;83.10;;;;;;5074346;28;20020;-71
2022/08/05 06:16:14;;;;;;;0.00;0.00;;;25.60;82.70;;;;;;5073996;28;20024;-71
2022/08/05 06:18:40;;;;;;;0.00;0.00;;;25.70;83.80;;;;;;5068221;28;20392;-71
2022/08/05 06:21:06;;;;;;;0.20;0.20;;;25.90;83.10;;;;;;5052575;28;20087;-71
2022/08/05 06:23:32;;;;;;;0.00;0.00;;;26.00;82.50;;;;;;5048284;28;20164;-71
2022/08/05 06:25:57;;;;;;;0.20;0.20;;;26.20;81.40;;;;;;5053915;28;20021;-71
2022/08/05 06:28:23;;;;;;;0.03;0.03;;;26.40;80.10;;;;;;5054795;28;20104;-71
2022/08/05 06:30:49;;;;;;;0.00;0.00;;;26.50;80.10;;;;;;5052143;28;20017;-71
2022/08/05 06:33:15;;;;;;;0.00;0.00;;;26.50;79.40;;;;;;5029912;28;20013;-71
2022/08/05 06:35:41;;;;;;;0.05;0.05;;;26.60;76.20;;;;;;5053504;28;20031;-71
2022/08/05 06:38:06;;;;;;;0.25;0.25;;;26.40;72.90;;;;;;5052254;28;20119;-71
2022/08/05 06:40:32;;;;;;;0.47;0.47;;;26.40;73.20;;;;;;5052331;28;20079;-71
2022/08/05 06:42:58;;;;;;;0.00;0.00;;;26.40;72.80;;;;;;5053476;28;20091;-71
2022/08/05 06:45:24;;;;;;;0.00;0.00;;;26.40;72.90;;;;;;5052571;28;20111;-71
2022/08/05 06:47:49;;;;;;;0.10;0.10;;;26.40;73.00;;;;;;5055151;28;20033;-71
2022/08/05 06:50:15;;;;;;;0.00;0.00;;;26.40;72.90;;;;;;5062313;28;20037;-71
2022/08/05 06:52:41;;;;;;;0.00;0.00;;;26.60;72.30;;;;;;5056300;28;20107;-71
2022/08/05 06:55:07;;;;;;;0.00;0.00;;;26.60;72.20;;;;;;5067806;28;20099;-71
2022/08/05 06:57:33;;;;;;;0.10;0.10;;;26.70;72.10;;;;;;5051973;28;20429;-71
2022/08/05 06:59:59;;;;;;;0.38;0.38;;;26.90;71.50;;;;;;5053278;28;20052;-71
2022/08/05 07:02:24;;;;;;;0.15;0.15;;;26.90;71.10;;;;;;5040110;28;20499;-71
2022/08/05 07:04:50;;;;;;;5.18;0.47;;;26.90;71.30;;;;;;5071977;28;20086;-71
2022/08/05 07:07:17;;;;;;;0.10;0.10;;;26.90;70.70;;;;;;5072668;28;20027;-71
2022/08/05 07:09:43;;;;;;;0.10;0.10;;;26.90;70.90;;;;;;5058378;28;20078;-71
2022/08/05 07:16:47;;;;;;;0.32;0.32;;;26.80;71.00;;;;;;5051598;28;20535;-71
2022/08/05 07:17:38;;;;;;;0.50;0.45;;;26.90;71.60;;;;;;5052509;28;20067;-71
2022/08/05 07:20:04;;;;;;;0.63;0.63;;;26.80;71.30;;;;;;5061418;28;20055;-71
2022/08/05 07:22:30;;;;;;;0.47;0.47;;;26.70;71.50;;;;;;5073034;28;20025;-71
2022/08/05 07:24:58;;;;;;;0.28;0.22;;;26.70;71.80;;;;;;5054848;28;20044;-71
2022/08/05 07:27:24;;;;;;;0.00;0.00;;;26.70;71.70;;;;;;5031530;28;20030;-71
2022/08/05 07:29:49;;;;;;;0.10;0.10;;;26.70;72.10;;;;;;5022725;28;20032;-71
2022/08/05 07:32:15;;;;;;;0.00;0.00;;;26.80;71.70;;;;;;5052592;28;20499;-71
2022/08/05 07:34:41;;;;;;;0.43;0.43;;;26.90;71.30;;;;;;5052642;28;20028;-72
2022/08/05 07:37:06;;;;;;;0.20;0.20;;;26.90;70.20;;;;;;5051136;28;20108;-71
2022/08/05 07:39:33;;;;;;;9.52;1.65;;;26.90;70.30;;;;;;5052584;28;20095;-71
2022/08/05 07:41:58;;;;;;;2.08;1.25;;;26.80;69.50;;;;;;5051364;28;20481;-72
2022/08/05 07:44:24;;;;;;;0.00;0.00;;;26.70;69.20;;;;;;5051416;28;20032;-71
2022/08/05 07:46:50;;;;;;;0.60;0.60;;;26.70;70.20;;;;;;5051077;28;20746;-72
2022/08/05 07:49:17;;;;;;;0.00;0.00;;;26.70;70.40;;;;;;5051011;28;20423;-71
2022/08/05 07:51:43;;;;;;;0.00;0.00;;;26.80;70.40;;;;;;5051133;28;20079;-71
2022/08/05 07:54:09;;;;;;;0.00;0.00;;;26.90;70.00;;;;;;5050857;28;20112;-72
2022/08/05 07:56:34;;;;;;;0.00;0.00;;;27.10;69.90;;;;;;5052082;28;20112;-72
2022/08/05 07:59:00;;;;;;;0.55;0.28;;;27.10;69.10;;;;;;5052040;28;20028;-72
2022/08/05 08:01:26;;;;;;;1.13;1.05;;;27.30;69.10;;;;;;5050684;28;20036;-72
2022/08/05 08:03:52;;;;;;;0.70;0.30;;;27.60;68.30;;;;;;5052318;28;20107;-72
2022/08/05 08:06:18;;;;;;;2.10;1.25;;;27.70;66.70;;;;;;5052023;28;20067;-72
2022/08/05 08:08:44;;;;;;;0.20;0.20;;;27.70;66.20;;;;;;5052081;28;20087;-72
2022/08/05 08:11:10;;;;;;;3.72;0.75;;;27.70;65.80;;;;;;5051067;28;20017;-72
2022/08/05 08:13:35;;;;;;;1.77;0.93;;;27.70;65.80;;;;;;5050855;28;20049;-72
2022/08/05 08:16:01;;;;;;;0.08;0.08;;;27.50;65.90;;;;;;5050714;28;20025;-72
2022/08/05 08:18:27;;;;;;;0.00;0.00;;;27.50;66.40;;;;;;5052017;28;20091;-72
2022/08/05 08:20:53;;;;;;;0.13;0.13;;;27.60;66.40;;;;;;5050943;28;20036;-72
2022/08/05 08:23:18;;;;;;;0.00;0.00;;;27.90;66.40;;;;;;5051290;28;20052;-72
2022/08/05 08:25:45;;;;;;;0.10;0.10;;;27.80;65.90;;;;;;5048466;28;20159;-72
2022/08/05 08:28:11;;;;;;;0.65;0.38;;;27.80;66.10;;;;;;5059018;28;20496;-72
2022/08/05 08:30:39;;;;;;;0.60;0.60;;;28.00;65.30;;;;;;5050462;28;20018;-72
2022/08/05 08:33:09;;;;;;;0.00;0.00;;;28.00;65.40;;;;;;5049331;28;20021;-72
2022/08/05 08:35:36;;;;;;;0.13;0.13;;;28.20;65.60;;;;;;5049687;28;20013;-72
2022/08/05 08:38:02;;;;;;;1.75;0.75;;;28.00;65.70;;;;;;5051209;28;20118;-72
2022/08/05 08:40:31;;;;;;;6.72;0.68;;;27.90;66.10;;;;;;5052486;28;20388;-76
2022/08/05 08:42:59;;;;;;;1.15;0.65;;;27.40;67.50;;;;;;5050960;28;20411;-73
2022/08/05 08:45:25;;;;;;;2.30;1.65;;;27.50;68.30;;;;;;5052141;28;20024;-72
2022/08/05 08:47:53;;;;;;;0.45;0.45;;;27.90;67.20;;;;;;5053163;28;20025;-73
2022/08/05 08:50:19;;;;;;;0.30;0.30;;;28.30;66.40;;;;;;5050675;28;20051;-72
2022/08/05 08:52:52;;;;;;;10.40;1.42;;;28.70;65.10;;;;;;5033604;28;20119;-72
2022/08/05 08:55:19;;;;;;;0.10;0.10;;;28.70;64.60;;;;;;5051420;28;20104;-71
2022/08/05 08:57:48;;;;;;;6.18;1.55;;;28.70;64.70;;;;;;5051553;28;20024;-71
2022/08/05 09:00:14;;;;;;;0.20;0.20;;;28.70;64.00;;;;;;5050422;28;20024;-71
2022/08/05 09:02:40;;;;;;;0.70;0.43;;;28.80;64.20;;;;;;5050201;28;20449;-71
2022/08/05 09:05:06;;;;;;;1.48;1.10;;;29.40;63.60;;;;;;5051366;28;20446;-71
2022/08/05 09:07:32;;;;;;;3.05;1.08;;;29.50;62.80;;;;;;5050085;28;20021;-71
2022/08/05 09:09:58;;;;;;;0.10;0.10;;;29.40;62.40;;;;;;5051383;28;20025;-71
2022/08/05 09:12:24;;;;;;;0.03;0.03;;;29.60;63.00;;;;;;5050270;28;20029;-71
2022/08/05 09:14:50;;;;;;;0.00;0.00;;;30.20;61.80;;;;;;5050160;28;20029;-71
2022/08/05 09:17:16;;;;;;;0.30;0.30;;;30.60;59.70;;;;;;5051034;28;20048;-71
2022/08/05 09:19:41;;;;;;;0.00;0.00;;;30.60;59.30;;;;;;5051397;28;20021;-71
2022/08/05 09:22:07;;;;;;;1.27;1.17;;;30.70;59.20;;;;;;5051432;28;20434;-71
2022/08/05 09:24:36;;;;;;;0.43;0.35;;;30.00;59.90;;;;;;5049958;28;20024;-71
2022/08/05 09:27:07;;;;;;;8.65;1.10;;;29.60;62.30;;;;;;5049898;28;20079;-71
2022/08/05 09:29:45;;;;;;;;;;;29.90;62.10;;;;;;5042705;28;20033;-71
2022/08/05 09:32:11;;;;;;;1.35;1.17;;;30.40;60.60;;;;;;5039550;28;20332;-71
2022/08/05 09:34:54;;;;;;;1.88;1.77;;;30.80;58.70;;;;;;5040301;28;20369;-71
2022/08/05 09:37:25;;;;;;;5.55;1.23;;;30.30;59.40;;;;;;5045102;28;20092;-71
2022/08/05 09:39:52;;;;;;;0.00;0.00;;;30.40;58.80;;;;;;5043511;28;20021;-71
2022/08/05 09:42:19;;;;;;;1.25;1.15;;;30.30;59.70;;;;;;5047660;28;20029;-71
2022/08/05 09:44:48;;;;;;;1.77;1.48;;;30.70;58.80;;;;;;5054876;28;20040;-71
2022/08/05 09:47:15;;;;;;;0.30;0.30;;;31.00;57.50;;;;;;5054643;28;20025;-71
2022/08/05 09:49:46;;;;;;;2.25;2.05;;;30.80;58.80;;;;;;5053483;28;20035;-71
2022/08/05 09:52:20;;;;;;;1.80;1.35;;;31.00;58.60;;;;;;5037131;28;20044;-71
2022/08/05 09:55:04;;;;;;;1.42;0.93;;;30.80;58.60;;;;;;5058492;28;20029;-71
2022/08/05 09:57:38;;;;;;;0.93;0.75;;;30.70;58.60;;;;;;5039523;28;20434;-71
2022/08/05 10:00:14;;;;;;;0.40;0.35;;;30.50;59.60;;;;;;5056955;28;20013;-71
2022/08/05 10:02:45;;;;;;;0.30;0.30;;;31.20;58.50;;;;;;5058770;28;20024;-71
2022/08/05 10:05:13;;;;;;;0.15;0.15;;;32.00;57.50;;;;;;5074233;28;20035;-71
2022/08/05 10:07:49;;;;;;;0.08;0.08;;;32.50;55.60;;;;;;5054820;28;20032;-71
2022/08/05 10:10:17;;;;;;;0.57;0.57;;;32.60;54.70;;;;;;5053098;28;20396;-71
2022/08/05 10:12:48;;;;;;;0.08;0.08;;;32.20;55.00;;;;;;5054655;28;20451;-71
2022/08/05 10:15:21;;;;;;;2.28;0.50;;;32.20;55.70;;;;;;5062849;28;20294;-71
2022/08/05 10:18:15;;;;;;;0.20;0.20;;;32.50;55.20;;;;;;5053947;28;20044;-71
2022/08/05 10:20:44;;;;;;;0.35;0.35;;;32.70;55.10;;;;;;5055417;28;20040;-71
2022/08/05 10:23:13;;;;;;;0.20;0.20;;;32.50;54.90;;;;;;5054538;28;20055;-71
2022/08/05 10:25:39;;;;;;;0.15;0.15;;;32.10;56.10;;;;;;5053767;28;20033;-71
2022/08/05 10:28:06;;;;;;;0.30;0.17;;;32.50;56.00;;;;;;5053507;28;20108;-71
2022/08/05 10:30:33;;;;;;;0.20;0.20;;;32.70;55.40;;;;;;5053778;28;20090;-71
2022/08/05 10:32:59;;;;;;;0.85;0.50;;;32.40;56.10;;;;;;5053984;28;20021;-71
2022/08/05 10:35:25;;;;;;;1.33;1.20;;;32.80;55.00;;;;;;5053739;28;20480;-71
2022/08/05 10:37:52;;;;;;;5.40;0.10;;;32.90;54.70;;;;;;5064787;28;20031;-71
2022/08/05 10:40:55;;;;;;;0.32;0.32;;;32.80;54.50;;;;;;5051937;28;20476;-71
2022/08/05 10:43:27;;;;;;;0.80;0.80;;;33.40;54.00;;;;;;5055263;28;20040;-71
2022/08/05 10:46:02;;;;;;;0.45;0.45;;;33.20;53.60;;;;;;5066365;28;20043;-71
2022/08/05 10:48:39;;;;;;;0.00;0.00;;;32.80;54.80;;;;;;5071775;28;20036;-72
2022/08/05 10:51:09;;;;;;;0.63;0.63;;;32.90;55.10;;;;;;5053673;28;20021;-71
2022/08/05 10:53:35;;;;;;;0.20;0.20;;;33.40;54.60;;;;;;5060430;28;20053;-71
2022/08/05 10:56:13;;;;;;;0.22;0.22;;;34.20;52.30;;;;;;5073256;28;20092;-71
2022/08/05 10:59:03;;;;;;;1.00;0.80;;;34.20;52.10;;;;;;5059330;28;20029;-71
2022/08/05 11:01:31;;;;;;;0.10;0.10;;;34.20;51.90;;;;;;5051419;28;20548;-71
2022/08/05 11:04:20;;;;;;;1.10;0.85;;;34.50;52.00;;;;;;5050214;28;20021;-72
2022/08/05 11:07:03;;;;;;;1.15;0.55;;;34.50;51.30;;;;;;5051552;28;20029;-71
2022/08/05 11:09:52;;;;;;;0.70;0.68;;;33.90;52.80;;;;;;5050611;28;20029;-71
2022/08/05 11:12:37;;;;;;;0.88;0.85;;;33.90;52.20;;;;;;5049769;28;20025;-71
2022/08/05 11:15:15;;;;;;;0.00;0.00;;;34.00;52.10;;;;;;5052970;28;20025;-71
2022/08/05 11:18:04;;;;;;;0.20;0.10;;;34.30;53.40;;;;;;5065757;22;20045;-74
2022/08/05 11:20:46;;;;;;;1.27;0.90;;;34.70;51.10;;;;;;5054604;28;20025;-77
2022/08/05 11:23:28;;;;;;;0.60;0.40;;;34.70;51.10;;;;;;5054036;28;20045;-78
2022/08/05 11:26:20;;;;;;;0.57;0.43;;;34.50;51.40;;;;;;5053445;28;20089;-77
2022/08/05 11:28:51;;;;;;;0.38;0.38;;;34.80;51.00;;;;;;5053479;28;20021;-78
2022/08/05 11:31:17;;;;;;;;;;;35.10;51.00;;;;;;5054271;28;20025;-77
2022/08/05 11:33:45;;;;;;;0.10;0.10;;;34.30;52.10;;;;;;5053908;28;19905;-77
2022/08/05 11:36:14;;;;;;;0.00;0.00;;;34.60;51.50;;;;;;5052586;28;20021;-77
2022/08/05 11:38:42;;;;;;;2.78;1.00;;;34.70;50.90;;;;;;5036470;28;20072;-77
2022/08/05 11:41:16;;;;;;;0.47;0.47;;;35.00;49.90;;;;;;5053139;28;20029;-77
2022/08/05 11:43:51;;;;;;;0.00;0.00;;;34.40;51.90;;;;;;5054188;28;20048;-77
2022/08/05 11:46:17;;;;;;;0.50;0.50;;;34.90;50.90;;;;;;5054299;28;20017;-76
2022/08/05 11:48:43;;;;;;;0.00;0.00;;;35.20;49.20;;;;;;5054310;28;20106;-77
2022/08/05 11:51:09;;;;;;;0.00;0.00;;;35.60;49.00;;;;;;5054030;28;20056;-77
2022/08/05 11:53:36;;;;;;;0.05;0.05;;;35.70;47.90;;;;;;5046795;28;20384;-77
2022/08/05 11:56:02;;;;;;;0.45;0.45;;;35.60;48.50;;;;;;5055583;28;20082;-77
2022/08/05 11:58:35;;;;;;;2.30;1.17;;;35.50;48.30;;;;;;5056218;28;20024;-77
2022/08/05 12:01:04;;;;;;;0.08;0.08;;;35.20;48.30;;;;;;5049185;28;20029;-75
2022/08/05 12:03:52;;;;;;;0.28;0.25;;;34.60;49.40;;;;;;5015198;28;20032;-75
2022/08/05 12:06:24;;;;;;;0.55;0.52;;;34.60;49.50;;;;;;5031939;28;20489;-75
2022/08/05 12:08:54;;;;;;;1.15;1.02;;;34.50;50.00;;;;;;5050488;28;20028;-76
2022/08/05 12:11:21;;;;;;;0.80;0.68;;;34.40;49.00;;;;;;5052872;28;20365;-74
2022/08/05 12:13:59;;;;;;;0.52;0.43;;;34.30;50.20;;;;;;5053043;28;20472;-75
2022/08/05 12:16:30;;;;;;;1.20;0.30;;;34.30;50.00;;;;;;5051470;28;20025;-75
2022/08/05 12:18:56;;;;;;;2.78;1.65;;;34.00;50.30;;;;;;5067997;28;20064;-74
2022/08/05 12:21:29;;;;;;;0.00;0.00;;;34.20;50.60;;;;;;5053122;28;20534;-74
2022/08/05 12:24:06;;;;;;;0.40;0.40;;;34.10;50.20;;;;;;5052998;28;20048;-73
2022/08/05 12:26:37;;;;;;;0.30;0.30;;;34.20;51.10;;;;;;5068086;28;20483;-74
2022/08/05 12:29:10;;;;;;;1.55;0.28;;;34.40;49.80;;;;;;5068318;28;20028;-73
2022/08/05 12:31:36;;;;;;;0.00;0.00;;;34.10;50.00;;;;;;5067594;28;20025;-74
2022/08/05 12:34:04;;;;;;;0.10;0.10;;;33.80;51.20;;;;;;5067703;28;20423;-73
2022/08/05 12:36:31;;;;;;;0.75;0.75;;;33.60;51.50;;;;;;5067504;28;20500;-74
2022/08/05 12:38:58;;;;;;;0.00;0.00;;;33.60;51.60;;;;;;5067575;28;20055;-73
2022/08/05 12:41:30;;;;;;;1.05;0.60;;;33.80;52.50;;;;;;5067607;28;20025;-74
2022/08/05 12:44:00;;;;;;;1.63;1.35;;;34.10;50.90;;;;;;5052055;28;20070;-74
2022/08/05 12:46:28;;;;;;;0.20;0.20;;;34.20;50.00;;;;;;5052131;28;20028;-74
2022/08/05 12:49:00;;;;;;;1.08;0.85;;;33.90;50.70;;;;;;5067388;28;20061;-74
2022/08/05 12:51:26;;;;;;;3.53;0.75;;;33.90;51.30;;;;;;5067424;28;20427;-73
2022/08/05 12:53:58;;;;;;;0.75;0.75;;;33.60;51.40;;;;;;5051996;28;20075;-73
2022/08/05 12:56:24;;;;;;;0.00;0.00;;;32.80;51.90;;;;;;5051665;28;20029;-73
2022/08/05 12:59:13;;;;;;;0.00;0.00;;;33.00;52.20;;;;;;5067008;28;20516;-73